Accueil
METAR-TAF:

METAR-TAF

Aéroports :

Île Adak, Alaska, États-Unis

latitude: 51-52-40N, longitude: 176-38-45W, altitude: 6 m

Observation

Le bulletin a été fait il y a 20 minutes, à 15:02 UTC
Vent 7 kt de ouest/sud-ouest
Température 7°C
Humidité 93%
Pression 1017 hPa
Visibilité: 16.1 km
Nuages fragmentés à une hauteur de 1200 ft
Nuages fragmentés à une hauteur de 2300 ft
Ciel couvert à une hauteur de 3000 ft

METAR: PADK 281502Z AUTO 25007KT 10SM BKN012 BKN023 OVC030 07/06 A3002 RMK AO2

Heure: 07:22 (15:22 UTC)


TAF: absent

Observations et prévisions météorologiques de plus de 4000 aéroports (messages METAR et TAF).

Les stations disponibles sont représentées par des disques jaunes et rouges sur la carte.

Passer la souris dessus pour voir le nom de la station.

Cliquer dessus pour voir les observations et prévisions météorologiques.

Pour changer de carte: cliquez sur les boutons verts avec une croix noire pour zoomer, sur le bouton vert avec un tiret pour effectuer un zoom arrière, ou sur les flèches vertes pour les cartes adjacentes.


METAR-TAF: